Time;durP1;ratioP1;P1;durP2;ratioP2;P2;SDS_P1;SDS_P2;PMS_P1;PMS_P2;Temp;Humidity;BMP_temperature;BMP_pressure;BME280_temperature;BME280_humidity;BME280_pressure;Samples;Min_cycle;Max_cycle;Signal;HPM_P1;HPM_P2
2022/01/19 00:00:29;;;;;;;7.23;5.93;;;4.80;99.90;;;5.58;100.00;-19916.75;5111132;28;20306;-59
2022/01/19 00:02:57;;;;;;;7.60;6.07;;;4.80;99.90;;;5.58;100.00;-19916.75;5110631;28;20717;-60
2022/01/19 00:05:26;;;;;;;7.17;6.17;;;4.80;99.90;;;5.54;100.00;-19915.38;5111634;28;20252;-60
2022/01/19 00:07:54;;;;;;;6.23;5.20;;;4.80;99.90;;;5.49;100.00;-19913.84;5111050;28;20223;-60
2022/01/19 00:10:27;;;;;;;6.70;6.00;;;4.80;99.90;;;5.45;100.00;-19912.31;5111254;28;20303;-60
2022/01/19 00:12:56;;;;;;;7.27;5.97;;;4.80;99.90;;;5.49;100.00;-19913.84;5111036;28;20623;-61
2022/01/19 00:15:26;;;;;;;8.30;6.33;;;4.80;99.90;;;5.53;100.00;-19915.03;5111088;28;20310;-61
2022/01/19 00:17:58;;;;;;;6.57;5.43;;;4.80;99.90;;;5.56;100.00;-19916.25;5109836;28;20239;-60
2022/01/19 00:20:30;;;;;;;6.93;5.50;;;4.80;99.90;;;5.46;100.00;-19912.81;5111691;28;20472;-60
2022/01/19 00:23:03;;;;;;;6.50;5.73;;;4.80;99.90;;;5.47;100.00;-19912.97;5110582;28;20226;-60
2022/01/19 00:25:32;;;;;;;7.00;5.47;;;4.80;99.90;;;5.48;100.00;-19913.50;5110332;28;20666;-60
2022/01/19 00:28:00;;;;;;;6.83;5.80;;;4.80;99.90;;;5.45;100.00;-19912.47;5110067;28;20718;-59
2022/01/19 00:30:29;;;;;;;5.57;5.03;;;4.70;99.90;;;5.48;100.00;-19913.34;5110359;28;20229;-59
2022/01/19 00:32:59;;;;;;;6.50;5.67;;;4.80;99.90;;;5.45;100.00;-19912.47;5110758;28;20211;-59
2022/01/19 00:35:27;;;;;;;5.57;4.97;;;4.80;99.90;;;5.49;100.00;-19913.84;5111098;28;20218;-60
2022/01/19 00:37:55;;;;;;;6.53;5.43;;;4.80;99.90;;;5.53;100.00;-19915.03;5110432;28;20765;-59
2022/01/19 00:40:23;;;;;;;7.23;5.40;;;4.80;99.90;;;5.58;100.00;-19916.91;5110151;28;20646;-59
2022/01/19 00:42:52;;;;;;;7.70;5.57;;;4.80;99.90;;;5.58;100.00;-19916.91;5110424;28;20317;-59
2022/01/19 00:45:21;;;;;;;5.87;5.23;;;4.80;99.90;;;5.60;100.00;-19917.59;5110438;28;20314;-59
2022/01/19 00:47:49;;;;;;;7.10;5.57;;;4.80;99.90;;;5.62;100.00;-19918.28;5110779;28;20196;-59
2022/01/19 00:50:24;;;;;;;6.50;5.23;;;4.80;99.90;;;5.73;100.00;-19921.88;5109492;28;20242;-59
2022/01/19 00:52:52;;;;;;;6.53;4.93;;;4.90;99.90;;;5.65;100.00;-19919.16;5090003;28;20306;-59
2022/01/19 00:55:23;;;;;;;6.03;4.93;;;4.90;99.90;;;5.59;100.00;-19917.09;5100155;28;20714;-59
2022/01/19 00:57:52;;;;;;;6.63;5.13;;;4.90;99.90;;;5.54;100.00;-19915.38;5110122;28;20319;-59
2022/01/19 01:00:23;;;;;;;5.93;5.27;;;4.90;99.90;;;5.57;100.00;-19916.41;5110117;28;20223;-59
2022/01/19 01:02:52;;;;;;;7.10;5.43;;;4.90;99.90;;;5.54;100.00;-19915.56;5109883;28;20298;-59
2022/01/19 01:05:22;;;;;;;5.67;5.07;;;4.80;99.90;;;5.50;100.00;-19914.00;5110640;28;20199;-60
2022/01/19 01:07:50;;;;;;;7.60;5.37;;;4.80;99.90;;;5.51;100.00;-19914.34;5110390;28;20310;-60
2022/01/19 01:10:21;;;;;;;7.23;5.57;;;4.80;99.90;;;5.55;100.00;-19915.72;5110122;28;20604;-60
2022/01/19 01:12:52;;;;;;;6.53;5.20;;;4.80;99.90;;;5.62;100.00;-19918.13;5110495;28;20585;-60
2022/01/19 01:18:19;;;;;;;5.77;4.57;;;4.80;99.90;;;5.62;100.00;-19918.13;5108395;28;20282;-59
2022/01/19 01:20:51;;;;;;;5.70;4.80;;;4.90;99.90;;;5.62;100.00;-19918.13;5110604;28;20703;-59
2022/01/19 01:23:22;;;;;;;6.63;4.63;;;4.90;99.90;;;5.73;100.00;-19921.88;5110291;28;20310;-59
2022/01/19 01:25:51;;;;;;;7.57;5.13;;;4.90;99.90;;;5.67;100.00;-19919.81;5110045;28;20341;-59
2022/01/19 01:28:20;;;;;;;6.67;5.00;;;4.90;99.90;;;5.71;100.00;-19921.19;5110039;28;20247;-60
2022/01/19 01:30:50;;;;;;;7.00;4.83;;;4.90;99.90;;;5.58;100.00;-19916.91;5113193;28;20311;-60
2022/01/19 01:33:18;;;;;;;7.33;4.70;;;4.90;99.90;;;5.62;100.00;-19918.13;5113843;28;20667;-60
2022/01/19 01:35:48;;;;;;;7.03;4.77;;;4.90;99.90;;;5.67;100.00;-19920.00;5113908;28;20295;-60
2022/01/19 01:38:16;;;;;;;8.27;5.10;;;4.90;99.90;;;5.48;100.00;-19913.50;5114227;28;20677;-60
2022/01/19 01:41:05;;;;;;;6.73;4.73;;;4.80;99.90;;;5.43;100.00;-19911.78;5129578;27;20573;-59
2022/01/19 01:43:33;;;;;;;6.40;4.70;;;4.80;99.90;;;5.41;100.00;-19911.09;5134017;27;20640;-59
2022/01/19 01:46:04;;;;;;;5.93;4.63;;;4.80;99.90;;;5.45;100.00;-19912.31;5134201;27;20232;-59
2022/01/19 01:48:41;;;;;;;6.33;4.50;;;4.70;99.90;;;5.25;100.00;-19905.63;5134504;27;20223;-59
2022/01/19 01:53:59;;;;;;;5.47;4.80;;;4.60;99.90;;;5.25;100.00;-19905.63;5113887;28;20226;-59
2022/01/19 01:56:27;;;;;;;5.60;4.53;;;4.60;99.90;;;5.19;100.00;-19903.41;5113499;28;20233;-59
2022/01/19 01:58:55;;;;;;;6.27;4.90;;;4.50;99.90;;;5.18;100.00;-19903.25;5113167;27;20225;-59
2022/01/19 02:01:23;;;;;;;6.07;4.77;;;4.50;99.90;;;5.07;100.00;-19899.31;5112727;28;20726;-60
2022/01/19 02:03:52;;;;;;;7.40;5.23;;;4.50;99.90;;;5.13;100.00;-19901.53;5112942;28;20227;-60
2022/01/19 02:06:38;;;;;;;7.97;5.00;;;4.50;99.90;;;5.12;100.00;-19901.19;5112528;28;20552;-59
2022/01/19 02:09:11;;;;;;;6.97;5.10;;;4.50;99.90;;;5.20;100.00;-19903.75;5113418;28;20270;-59
2022/01/19 02:23:08;;;;;;;5.80;4.67;;;4.50;99.90;;;5.26;100.00;-19905.97;5112661;28;20250;-59
2022/01/19 02:25:41;;;;;;;6.00;4.87;;;4.50;99.90;;;5.17;100.00;-19902.72;5112672;28;20280;-60
2022/01/19 02:36:39;;;;;;;6.67;4.57;;;4.30;99.90;;;4.54;100.00;-19881.53;5110186;27;20872;-59
2022/01/19 02:42:12;;;;;;;7.00;4.87;;;4.00;99.90;;;4.38;100.00;-19875.91;5067778;28;20231;-60
2022/01/19 02:50:09;;;;;;;6.47;4.90;;;3.80;99.90;;;4.38;100.00;-19875.91;5112291;28;20233;-60
2022/01/19 02:52:39;;;;;;;5.77;4.43;;;3.70;99.90;;;4.32;100.00;-19874.03;5091915;28;20233;-60
2022/01/19 02:55:08;;;;;;;6.43;5.10;;;3.70;99.90;;;4.22;100.00;-19870.59;5095596;28;20315;-60
2022/01/19 02:57:37;;;;;;;7.03;5.23;;;3.60;99.90;;;4.19;100.00;-19869.56;5111881;28;20230;-60
2022/01/19 03:08:46;;;;;;;6.47;5.77;;;3.40;99.90;;;3.87;100.00;-19858.47;5112394;28;20288;-60
2022/01/19 03:11:17;;;;;;;8.43;6.10;;;3.40;99.90;;;3.90;100.00;-19859.66;5111868;28;20234;-60
2022/01/19 03:13:47;;;;;;;8.50;5.97;;;3.30;99.90;;;3.81;100.00;-19856.41;5111859;28;20229;-60
2022/01/19 03:16:18;;;;;;;7.30;5.63;;;3.30;99.90;;;4.07;100.00;-19865.31;5111566;28;20258;-60
2022/01/19 03:18:46;;;;;;;7.37;5.50;;;3.30;99.90;;;3.98;100.00;-19862.22;5111672;28;20234;-60
2022/01/19 03:21:15;;;;;;;8.10;5.63;;;3.30;99.90;;;3.83;100.00;-19857.09;5111384;28;20234;-61
2022/01/19 03:23:45;;;;;;;9.77;5.60;;;3.30;99.90;;;3.72;100.00;-19853.50;5112208;28;20309;-60
2022/01/19 03:26:14;;;;;;;8.13;5.40;;;3.20;99.90;;;3.79;100.00;-19855.72;5111383;28;20237;-60
2022/01/19 03:28:42;;;;;;;7.93;6.10;;;3.20;99.90;;;3.94;100.00;-19860.84;5111245;28;20307;-60
2022/01/19 03:31:11;;;;;;;7.73;5.80;;;3.20;99.90;;;3.81;100.00;-19856.41;5111558;28;20234;-61
2022/01/19 03:33:39;;;;;;;7.77;5.33;;;3.20;99.90;;;3.77;100.00;-19855.03;5128544;27;20761;-59
2022/01/19 03:36:07;;;;;;;9.23;5.90;;;3.20;99.90;;;3.65;100.00;-19851.28;5131907;27;20225;-60
2022/01/19 03:38:35;;;;;;;6.30;5.37;;;3.10;99.90;;;3.52;100.00;-19846.84;5132330;27;20295;-59
2022/01/19 03:41:05;;;;;;;8.57;6.13;;;3.10;99.90;;;3.53;100.00;-19847.19;5131622;27;20221;-60
2022/01/19 03:43:33;;;;;;;7.83;5.40;;;3.00;99.90;;;3.54;100.00;-19847.53;5125406;27;20248;-59
2022/01/19 03:46:04;;;;;;;9.03;5.50;;;3.00;99.90;;;3.50;100.00;-19846.00;5111330;27;20230;-59
2022/01/19 03:48:39;;;;;;;7.70;6.13;;;2.90;99.90;;;3.80;100.00;-19856.06;5111029;28;20248;-60
2022/01/19 03:51:07;;;;;;;7.77;5.63;;;3.00;99.90;;;3.69;100.00;-19852.66;5102934;28;20241;-59
2022/01/19 03:53:36;;;;;;;8.27;6.00;;;3.00;99.90;;;3.50;100.00;-19846.16;5090596;28;20197;-59
2022/01/19 03:56:06;;;;;;;7.53;5.83;;;3.00;99.90;;;3.45;100.00;-19844.44;5102328;28;20671;-59
2022/01/19 03:58:35;;;;;;;8.07;6.70;;;2.90;99.90;;;3.44;100.00;-19843.94;5110848;28;20742;-59
2022/01/19 04:01:05;;;;;;;7.93;6.67;;;2.90;99.90;;;3.68;100.00;-19852.13;5110566;28;20326;-61
2022/01/19 04:04:00;;;;;;;7.43;6.27;;;3.00;99.90;;;3.77;100.00;-19855.22;5110380;28;20230;-60
2022/01/19 04:06:50;;;;;;;7.03;6.30;;;3.00;99.90;;;4.13;100.00;-19867.34;5110685;28;20221;-60
2022/01/19 04:09:16;;;;;;;6.90;5.97;;;3.20;99.90;;;4.06;100.00;-19864.97;5110757;28;20623;-60
2022/01/19 04:11:46;;;;;;;7.33;6.53;;;3.30;99.90;;;4.16;100.00;-19868.53;5111045;28;20680;-61
2022/01/19 04:14:25;;;;;;;8.23;6.70;;;3.40;99.90;;;4.37;100.00;-19875.72;5110955;28;20241;-60
2022/01/19 04:16:57;;;;;;;9.17;6.20;;;3.50;99.90;;;4.40;100.00;-19876.56;5110553;28;20646;-61
2022/01/19 04:19:29;;;;;;;7.23;6.43;;;3.60;99.90;;;4.36;100.00;-19875.22;5110739;28;20254;-60
2022/01/19 04:22:00;;;;;;;8.03;6.47;;;3.60;99.90;;;4.31;100.00;-19873.66;5110256;28;20553;-60
2022/01/19 04:24:29;;;;;;;9.27;6.80;;;3.60;99.90;;;4.12;100.00;-19867.19;5110751;28;20225;-61
2022/01/19 04:29:52;;;;;;;8.07;6.33;;;3.50;99.90;;;4.03;100.00;-19863.94;5127125;27;20224;-60
2022/01/19 04:32:27;;;;;;;8.40;6.43;;;3.40;99.90;;;4.23;100.00;-19870.78;5131063;28;20206;-61
2022/01/19 04:34:55;;;;;;;9.10;6.53;;;3.50;99.90;;;4.18;100.00;-19869.22;5130700;27;20259;-60
2022/01/19 04:37:40;;;;;;;7.60;6.27;;;3.50;99.90;;;4.20;100.00;-19869.91;5130606;27;20252;-60
2022/01/19 04:54:34;;;;;;;8.40;6.53;;;3.30;99.90;;;4.32;100.00;-19873.84;5089642;28;20643;-60
2022/01/19 05:03:00;;;;;;;6.97;6.07;;;3.40;99.90;;;4.33;100.00;-19874.34;5079308;28;20297;-59
2022/01/19 05:05:32;;;;;;;6.70;5.90;;;3.40;99.90;;;4.30;100.00;-19873.16;5113077;28;20680;-59
2022/01/19 05:08:10;;;;;;;8.37;6.07;;;3.50;99.90;;;4.23;100.00;-19870.78;5114107;28;20232;-60
2022/01/19 05:13:26;;;;;;;8.53;6.53;;;3.50;99.90;;;4.16;100.00;-19868.53;5114090;28;20229;-59
2022/01/19 05:15:56;;;;;;;6.83;6.07;;;3.40;99.90;;;4.31;100.00;-19873.66;5114235;27;20306;-60
2022/01/19 05:18:24;;;;;;;7.37;6.63;;;3.50;99.90;;;4.06;100.00;-19865.13;5113743;28;20764;-60
2022/01/19 05:20:52;;;;;;;7.13;6.03;;;3.40;99.90;;;4.09;100.00;-19865.97;5114269;28;20280;-60
2022/01/19 05:23:20;;;;;;;6.87;6.17;;;3.40;99.90;;;4.25;100.00;-19871.63;5114790;28;20226;-60
2022/01/19 05:25:49;;;;;;;7.40;5.97;;;3.40;99.90;;;3.97;100.00;-19862.06;5128327;27;20245;-59
2022/01/19 05:28:17;;;;;;;9.60;7.13;;;3.30;99.90;;;3.81;100.00;-19856.59;5134109;27;20323;-59
2022/01/19 05:30:45;;;;;;;7.23;6.53;;;3.30;99.90;;;3.77;100.00;-19855.22;5134188;27;20305;-60
2022/01/19 05:33:15;;;;;;;8.67;6.07;;;3.20;99.90;;;3.73;100.00;-19853.84;5134020;27;20270;-60
2022/01/19 05:35:43;;;;;;;6.90;6.20;;;3.20;99.90;;;3.76;100.00;-19854.88;5131455;27;20241;-60
2022/01/19 05:38:11;;;;;;;7.87;6.70;;;3.20;99.90;;;4.11;100.00;-19866.84;5113598;28;20321;-60
2022/01/19 05:40:39;;;;;;;10.43;7.33;;;3.20;99.90;;;4.20;100.00;-19869.75;5112847;28;20259;-60
2022/01/19 05:43:07;;;;;;;9.13;7.40;;;3.30;99.90;;;3.96;100.00;-19861.72;5113251;28;20269;-60
2022/01/19 05:45:35;;;;;;;8.10;6.97;;;3.30;99.90;;;3.99;100.00;-19862.56;5113099;28;20321;-61
2022/01/19 05:48:05;;;;;;;11.07;7.60;;;3.30;99.90;;;3.90;100.00;-19859.66;5113362;27;20340;-60
2022/01/19 05:50:35;;;;;;;9.20;7.90;;;3.30;99.90;;;4.06;100.00;-19864.97;5113340;28;20194;-60
2022/01/19 05:53:03;;;;;;;10.67;8.90;;;3.30;99.90;;;4.03;100.00;-19863.94;5113069;27;20225;-61
2022/01/19 05:55:31;;;;;;;11.47;8.83;;;3.30;99.90;;;4.27;100.00;-19872.13;5112899;28;20792;-61
2022/01/19 05:57:59;;;;;;;11.13;8.90;;;3.40;99.90;;;4.10;100.00;-19866.31;5113145;28;20339;-62
2022/01/19 06:00:27;;;;;;;12.43;9.67;;;3.40;99.90;;;3.91;100.00;-19859.84;5113053;28;20321;-61
2022/01/19 06:02:55;;;;;;;14.70;10.60;;;3.40;99.90;;;3.97;100.00;-19862.06;5113123;28;20226;-61
2022/01/19 06:05:23;;;;;;;13.23;10.20;;;3.30;99.90;;;4.07;100.00;-19865.31;5112907;28;20226;-59
2022/01/19 06:08:09;;;;;;;16.13;10.70;;;3.30;99.90;;;4.21;100.00;-19870.25;5112907;28;20237;-61
2022/01/19 06:10:43;;;;;;;14.20;10.77;;;3.40;99.90;;;4.09;100.00;-19865.97;5112580;27;20260;-60
2022/01/19 06:13:14;;;;;;;14.73;11.03;;;3.40;99.90;;;4.30;100.00;-19873.16;5112792;28;20250;-62
2022/01/19 06:15:43;;;;;;;13.63;10.77;;;3.50;99.90;;;4.32;100.00;-19874.03;5112266;28;20228;-61
2022/01/19 06:18:12;;;;;;;16.27;11.67;;;3.50;99.90;;;4.35;100.00;-19874.88;5112730;28;20247;-60
2022/01/19 06:20:41;;;;;;;13.73;11.20;;;3.50;99.90;;;4.37;100.00;-19875.72;5115183;27;20298;-60
2022/01/19 06:23:11;;;;;;;16.07;12.10;;;3.60;99.90;;;4.52;100.00;-19880.69;5133672;27;20312;-61
2022/01/19 06:25:39;;;;;;;15.83;12.30;;;3.60;99.90;;;4.50;100.00;-19880.16;5133568;27;20302;-61
2022/01/19 06:28:07;;;;;;;15.70;12.40;;;3.70;99.90;;;4.48;100.00;-19879.47;5133815;27;20250;-61
2022/01/19 06:30:35;;;;;;;18.23;13.60;;;3.70;99.90;;;4.43;100.00;-19877.78;5133789;27;20422;-61
2022/01/19 06:33:04;;;;;;;20.20;13.60;;;3.60;99.90;;;4.49;100.00;-19879.66;5121593;27;20282;-61
2022/01/19 06:35:33;;;;;;;19.17;14.83;;;3.70;99.90;;;4.46;100.00;-19878.81;5113495;28;20191;-60
2022/01/19 06:38:01;;;;;;;20.73;13.83;;;3.60;99.90;;;4.39;100.00;-19876.25;5112882;28;20309;-60
2022/01/19 06:40:30;;;;;;;17.73;13.47;;;3.60;99.90;;;4.32;100.00;-19873.84;5112587;28;20306;-60
2022/01/19 06:42:59;;;;;;;19.53;14.40;;;3.60;99.90;;;4.34;100.00;-19874.53;5112553;28;20679;-60
2022/01/19 06:45:27;;;;;;;16.53;12.97;;;3.60;99.90;;;4.47;100.00;-19878.97;5112700;28;20226;-60
2022/01/19 06:47:55;;;;;;;17.80;12.77;;;3.50;99.90;;;4.23;100.00;-19870.78;5112979;28;20198;-60
2022/01/19 06:50:25;;;;;;;17.33;12.50;;;3.50;99.90;;;4.51;100.00;-19880.50;5111443;28;20290;-60
2022/01/19 06:52:53;;;;;;;19.10;12.63;;;3.60;99.90;;;4.50;100.00;-19880.16;5092412;28;20334;-60
2022/01/19 06:55:21;;;;;;;17.97;12.70;;;3.60;99.90;;;4.36;100.00;-19875.38;5098061;28;20229;-61
2022/01/19 06:57:50;;;;;;;17.97;13.57;;;3.60;99.90;;;4.32;100.00;-19873.84;5112604;28;20314;-61
2022/01/19 07:00:20;;;;;;;17.87;13.27;;;3.50;99.90;;;4.41;100.00;-19877.09;5112481;28;20306;-62
2022/01/19 07:02:48;;;;;;;16.73;12.00;;;3.60;99.90;;;4.25;100.00;-19871.63;5112288;27;20243;-62
2022/01/19 07:05:16;;;;;;;16.23;12.60;;;3.50;99.90;;;4.43;100.00;-19877.78;5112797;28;20221;-60
2022/01/19 07:07:44;;;;;;;15.37;11.93;;;3.50;99.90;;;4.19;100.00;-19869.56;5112232;27;20232;-62
2022/01/19 07:10:12;;;;;;;15.20;11.60;;;3.50;99.90;;;4.33;100.00;-19874.19;5112164;28;20303;-61
2022/01/19 07:12:41;;;;;;;14.83;11.07;;;3.50;99.90;;;4.39;100.00;-19876.25;5111955;28;20938;-62
2022/01/19 07:15:11;;;;;;;12.37;10.43;;;3.50;99.90;;;4.28;100.00;-19872.66;5111813;28;20246;-62
2022/01/19 07:17:39;;;;;;;13.00;10.60;;;3.50;99.90;;;4.31;100.00;-19873.66;5121084;27;20730;-62
2022/01/19 07:20:09;;;;;;;13.03;10.53;;;3.50;99.90;;;4.11;100.00;-19866.66;5132277;27;20308;-61
2022/01/19 07:22:37;;;;;;;15.50;10.70;;;3.50;99.90;;;4.14;100.00;-19867.69;5132508;27;20254;-61
2022/01/19 07:25:06;;;;;;;12.53;9.87;;;3.40;99.90;;;4.22;100.00;-19870.59;5132298;27;20326;-60
2022/01/19 07:27:34;;;;;;;12.90;10.40;;;3.40;99.90;;;4.14;100.00;-19867.69;5132378;27;20618;-61
2022/01/19 07:30:04;;;;;;;11.67;10.27;;;3.40;99.90;;;4.02;100.00;-19863.59;5114092;27;20266;-60
2022/01/19 07:32:35;;;;;;;11.33;9.63;;;3.40;99.90;;;4.10;100.00;-19866.50;5112607;28;20191;-60
2022/01/19 07:35:05;;;;;;;12.43;10.17;;;3.30;99.90;;;4.08;100.00;-19865.63;5111807;28;20224;-60
2022/01/19 07:37:34;;;;;;;11.57;9.17;;;3.30;99.90;;;4.14;100.00;-19867.88;5111707;27;20225;-61
2022/01/19 07:40:02;;;;;;;11.67;9.30;;;3.30;99.90;;;3.96;100.00;-19861.72;5111871;27;20228;-61
2022/01/19 07:42:30;;;;;;;12.27;9.23;;;3.20;99.90;;;3.91;100.00;-19860.00;5111830;28;20332;-61
2022/01/19 07:44:58;;;;;;;11.40;9.33;;;3.20;99.90;;;3.94;100.00;-19861.03;5111248;28;20208;-61
2022/01/19 07:47:27;;;;;;;10.87;8.90;;;3.20;99.90;;;4.17;100.00;-19868.72;5112340;28;20207;-61
2022/01/19 07:49:57;;;;;;;9.83;8.80;;;3.20;99.90;;;4.10;100.00;-19866.31;5111442;28;20234;-62
2022/01/19 07:52:26;;;;;;;11.60;9.20;;;3.30;99.90;;;4.20;100.00;-19869.91;5103082;28;20695;-61
2022/01/19 07:54:54;;;;;;;10.53;8.83;;;3.30;99.90;;;4.13;100.00;-19867.53;5108299;28;20325;-62
2022/01/19 07:57:22;;;;;;;12.10;9.70;;;3.30;99.90;;;4.19;100.00;-19869.56;5108215;28;20258;-62
2022/01/19 07:59:50;;;;;;;11.07;9.23;;;3.40;99.90;;;4.04;100.00;-19864.28;5108801;27;20329;-63
2022/01/19 08:02:18;;;;;;;11.90;10.37;;;3.30;99.90;;;4.30;100.00;-19873.34;5108336;28;20891;-60
2022/01/19 08:04:47;;;;;;;12.13;9.90;;;3.30;99.90;;;4.29;100.00;-19873.00;5108205;28;20227;-61
2022/01/19 08:07:16;;;;;;;12.13;9.73;;;3.40;99.90;;;4.17;100.00;-19868.88;5107800;28;20233;-62
2022/01/19 08:09:44;;;;;;;12.37;9.93;;;3.40;99.90;;;4.26;100.00;-19871.97;5086271;28;20220;-62
2022/01/19 08:12:12;;;;;;;11.07;9.20;;;3.40;99.90;;;4.13;100.00;-19867.34;5105884;28;20302;-61
2022/01/19 08:14:40;;;;;;;10.90;9.17;;;3.40;99.90;;;4.30;100.00;-19873.16;5108218;28;20271;-62
2022/01/19 08:17:08;;;;;;;10.57;8.83;;;3.30;99.90;;;4.16;100.00;-19868.53;5107896;28;20678;-61
2022/01/19 08:19:36;;;;;;;10.63;9.07;;;3.30;99.90;;;4.21;100.00;-19870.25;5107690;28;20279;-62
2022/01/19 08:22:05;;;;;;;11.43;8.63;;;3.40;99.90;;;4.28;100.00;-19872.66;5108024;28;20313;-64
2022/01/19 08:24:34;;;;;;;10.10;8.33;;;3.40;99.90;;;4.16;100.00;-19868.53;5108197;28;20218;-63
2022/01/19 08:27:08;;;;;;;8.23;7.33;;;3.40;99.90;;;4.31;100.00;-19873.50;5107668;28;20297;-63
2022/01/19 08:29:36;;;;;;;9.13;7.30;;;3.40;99.90;;;4.27;100.00;-19872.13;5107920;28;20290;-63
2022/01/19 08:32:06;;;;;;;10.20;7.70;;;3.40;99.90;;;4.43;100.00;-19877.59;5106952;28;20596;-62
2022/01/19 08:34:55;;;;;;;8.40;6.70;;;3.40;99.90;;;4.37;100.00;-19875.72;5106872;28;20218;-63
2022/01/19 08:37:23;;;;;;;9.70;7.03;;;3.50;99.90;;;4.44;100.00;-19878.13;5106945;28;20320;-62
2022/01/19 08:39:53;;;;;;;8.00;6.80;;;3.50;99.90;;;4.47;100.00;-19878.97;5108998;28;20308;-65
2022/01/19 08:42:21;;;;;;;8.00;6.97;;;3.50;99.90;;;4.47;100.00;-19879.16;5111709;28;20280;-67
2022/01/19 08:44:53;;;;;;;8.87;7.40;;;3.60;99.90;;;4.64;100.00;-19884.97;5112218;28;20201;-63
2022/01/19 08:47:23;;;;;;;9.10;8.10;;;3.60;99.90;;;4.59;100.00;-19883.25;5111838;28;20774;-55
2022/01/19 08:49:55;;;;;;;8.67;7.73;;;3.70;99.90;;;4.66;100.00;-19885.63;5111984;28;20225;-58
2022/01/19 08:52:23;;;;;;;8.80;7.57;;;3.80;99.90;;;4.60;100.00;-19883.59;5111655;28;20236;-57
2022/01/19 08:54:53;;;;;;;8.23;7.30;;;3.70;99.90;;;4.77;100.00;-19889.22;5111943;28;20222;-57
2022/01/19 08:57:21;;;;;;;8.70;7.40;;;3.80;99.90;;;4.71;100.00;-19887.34;5111582;28;20238;-62
2022/01/19 08:59:49;;;;;;;8.37;7.57;;;3.80;99.90;;;4.73;100.00;-19888.03;5112525;28;20205;-62
2022/01/19 09:02:17;;;;;;;8.83;7.73;;;3.80;99.90;;;4.87;100.00;-19892.81;5111503;28;20338;-61
2022/01/19 09:04:46;;;;;;;8.07;7.20;;;3.90;99.90;;;4.76;100.00;-19888.88;5111992;28;20356;-64
2022/01/19 09:07:15;;;;;;;8.60;7.70;;;3.90;99.90;;;4.83;100.00;-19891.44;5110934;27;20237;-62
2022/01/19 09:09:43;;;;;;;10.40;7.90;;;3.90;99.90;;;4.94;100.00;-19895.03;5111294;28;20244;-62
2022/01/19 09:12:13;;;;;;;8.47;7.67;;;3.90;99.90;;;4.91;100.00;-19894.19;5111225;28;20199;-62
2022/01/19 09:14:41;;;;;;;9.17;8.10;;;3.90;99.90;;;5.02;100.00;-19897.59;5111301;28;20290;-62
2022/01/19 09:17:09;;;;;;;8.17;6.87;;;3.90;99.90;;;5.01;100.00;-19897.25;5110717;27;20248;-65
2022/01/19 09:19:39;;;;;;;7.90;7.10;;;4.00;99.90;;;5.01;100.00;-19897.25;5110150;28;20325;-64
2022/01/19 09:22:08;;;;;;;8.53;6.70;;;4.10;99.90;;;4.90;100.00;-19893.84;5110947;27;20247;-65
2022/01/19 09:24:36;;;;;;;7.93;7.13;;;4.10;99.90;;;5.04;100.00;-19898.28;5110834;28;20241;-65
2022/01/19 09:27:08;;;;;;;7.03;6.33;;;4.10;99.90;;;4.92;100.00;-19894.34;5111168;27;20227;-64
2022/01/19 09:29:41;;;;;;;8.87;6.80;;;4.00;99.90;;;5.06;100.00;-19898.97;5111030;27;20548;-64
2022/01/19 09:32:11;;;;;;;7.43;6.73;;;4.10;99.90;;;5.08;100.00;-19899.66;5111040;27;20223;-64
2022/01/19 09:34:42;;;;;;;6.60;6.00;;;4.10;99.90;;;5.16;100.00;-19902.41;5110190;28;20692;-67
2022/01/19 09:37:11;;;;;;;7.17;6.20;;;4.20;99.90;;;5.16;100.00;-19902.56;5110241;28;20748;-68
2022/01/19 09:39:39;;;;;;;6.37;5.77;;;4.20;99.90;;;5.26;100.00;-19905.97;5110580;27;20226;-70
2022/01/19 09:42:08;;;;;;;7.00;6.30;;;4.30;99.90;;;5.37;100.00;-19909.56;5110499;28;20218;-69
2022/01/19 09:44:38;;;;;;;7.37;6.57;;;4.40;99.90;;;5.26;100.00;-19905.97;5110706;28;20242;-69
2022/01/19 09:47:07;;;;;;;6.93;6.00;;;4.30;99.90;;;5.19;100.00;-19903.59;5110202;28;20267;-66
2022/01/19 09:49:35;;;;;;;6.80;6.20;;;4.30;99.90;;;5.16;100.00;-19902.41;5110176;28;20233;-66
2022/01/19 09:52:05;;;;;;;6.73;5.90;;;4.40;99.90;;;5.18;100.00;-19903.25;5109848;28;20218;-67
2022/01/19 09:54:34;;;;;;;6.43;5.83;;;4.30;99.90;;;5.30;100.00;-19907.19;5110236;27;20234;-68
2022/01/19 09:57:03;;;;;;;6.83;5.73;;;4.30;99.90;;;5.20;100.00;-19903.94;5110764;28;20293;-67
2022/01/19 09:59:37;;;;;;;6.87;5.90;;;4.30;99.90;;;5.15;100.00;-19902.22;5110333;28;20224;-67
2022/01/19 10:02:09;;;;;;;7.83;5.70;;;4.30;99.90;;;5.11;100.00;-19900.84;5109989;28;20223;-68
2022/01/19 10:04:42;;;;;;;6.57;5.27;;;4.20;99.90;;;5.29;100.00;-19906.84;5110688;27;20224;-67
2022/01/19 10:07:13;;;;;;;5.97;5.33;;;4.20;99.90;;;5.24;100.00;-19905.31;5110132;28;20314;-66
2022/01/19 10:09:56;;;;;;;5.97;5.37;;;4.30;99.90;;;5.24;100.00;-19905.31;5110575;28;20252;-66
2022/01/19 10:18:13;;;;;;;5.60;5.00;;;4.40;99.90;;;5.29;100.00;-19907.00;5090580;28;20271;-66
2022/01/19 10:20:42;;;;;;;6.73;5.40;;;4.30;99.90;;;5.24;100.00;-19905.13;5109885;28;20632;-65
2022/01/19 10:23:36;;;;;;;7.17;4.83;;;4.30;99.90;;;5.31;100.00;-19907.53;5109663;28;20261;-68
2022/01/19 10:26:08;;;;;;;6.03;5.43;;;4.30;99.90;;;5.26;100.00;-19905.81;5109835;28;20727;-67
2022/01/19 10:28:58;;;;;;;5.50;5.10;;;4.30;99.90;;;5.32;100.00;-19907.84;5110119;28;20633;-68
2022/01/19 10:31:30;;;;;;;5.47;4.80;;;4.40;99.90;;;5.31;100.00;-19907.69;5109631;28;20288;-69
2022/01/19 10:34:16;;;;;;;5.77;4.97;;;4.40;99.90;;;5.37;100.00;-19909.75;5109651;28;20256;-67
2022/01/19 10:36:48;;;;;;;5.20;4.67;;;4.40;99.90;;;5.46;100.00;-19912.81;5109159;28;20215;-67
2022/01/19 10:39:18;;;;;;;5.43;4.90;;;4.50;99.90;;;5.42;100.00;-19911.28;5109424;27;20222;-68
2022/01/19 10:42:01;;;;;;;5.30;4.80;;;4.50;99.90;;;5.44;100.00;-19912.13;5109867;28;20615;-67
2022/01/19 10:44:32;;;;;;;6.03;4.80;;;4.40;99.90;;;5.32;100.00;-19908.03;5109235;28;20218;-66
2022/01/19 10:47:40;;;;;;;5.40;4.90;;;4.40;99.90;;;5.53;100.00;-19915.22;5109076;28;20250;-66
2022/01/19 10:50:10;;;;;;;5.20;4.70;;;4.50;99.90;;;5.59;100.00;-19917.25;5109075;28;20329;-68
2022/01/19 10:52:42;;;;;;;5.43;4.93;;;4.60;99.90;;;5.80;100.00;-19924.44;5108995;27;20250;-61
2022/01/19 10:55:24;;;;;;;5.03;4.53;;;4.70;99.90;;;5.86;100.00;-19926.31;5109466;28;20773;-61
2022/01/19 10:57:54;;;;;;;5.23;4.73;;;4.80;99.90;;;6.07;100.00;-19933.66;5108999;28;20253;-61
2022/01/19 11:00:28;;;;;;;5.20;4.70;;;4.80;99.90;;;5.79;100.00;-19923.94;5109269;28;20780;-65
2022/01/19 11:03:17;;;;;;;4.97;4.57;;;4.80;99.90;;;6.48;100.00;-19947.50;5109091;28;20310;-66
2022/01/19 11:05:48;;;;;;;5.50;5.00;;;5.00;99.90;;;6.74;100.00;-19956.41;5108630;28;20306;-67
2022/01/19 11:08:19;;;;;;;5.03;4.60;;;5.40;99.90;;;6.86;100.00;-19960.50;5108899;28;20250;-68
2022/01/19 11:10:50;;;;;;;4.90;4.50;;;5.50;99.90;;;6.77;100.00;-19957.25;5108652;28;20260;-62
2022/01/19 11:13:28;;;;;;;5.40;4.97;;;5.60;99.90;;;6.32;100.00;-19942.03;5109200;28;20309;-67
2022/01/19 11:15:59;;;;;;;5.60;5.00;;;5.40;99.90;;;6.04;100.00;-19932.66;5108781;28;20240;-67
2022/01/19 11:18:30;;;;;;;5.00;4.60;;;5.30;99.90;;;6.04;100.00;-19932.47;5102930;28;20280;-68
2022/01/19 11:21:05;;;;;;;5.10;4.63;;;5.10;99.90;;;5.92;100.00;-19928.53;5108982;28;20187;-67
2022/01/19 11:23:50;;;;;;;6.13;5.43;;;5.00;99.90;;;5.96;100.00;-19929.91;5108831;28;20215;-65
2022/01/19 11:26:27;;;;;;;5.37;4.87;;;5.00;99.90;;;5.86;100.00;-19926.31;5108357;28;20241;-65
2022/01/19 11:29:15;;;;;;;5.03;4.60;;;4.90;99.90;;;5.75;100.00;-19922.56;5108876;28;20235;-64
2022/01/19 11:31:43;;;;;;;5.03;4.40;;;4.90;99.90;;;5.70;100.00;-19921.03;5108489;28;20943;-68
2022/01/19 11:34:16;;;;;;;4.77;4.37;;;4.90;99.90;;;5.79;100.00;-19923.94;5108391;28;20244;-70
2022/01/19 11:36:44;;;;;;;4.53;4.13;;;4.90;99.90;;;5.94;100.00;-19929.06;5108298;27;20245;-70
2022/01/19 11:39:17;;;;;;;4.57;4.13;;;5.00;99.90;;;5.97;100.00;-19930.09;5108602;28;20273;-69
2022/01/19 11:41:51;;;;;;;4.90;4.50;;;5.00;99.90;;;5.99;100.00;-19930.94;5123512;27;20241;-70
2022/01/19 11:44:38;;;;;;;4.70;4.03;;;5.10;99.90;;;6.19;100.00;-19937.59;5132018;27;20230;-69
2022/01/19 11:47:23;;;;;;;4.47;4.10;;;5.10;99.90;;;6.55;100.00;-19949.72;5131976;27;20755;-71